sensor_id;sensor_type;location;lat;lon;timestamp;pressure;altitude;pressure_sealevel;temperature;humidity
28510;BME280;15723;55.684;37.928;2022-11-20T00:01:18;100183.19;;;-1.42;79.99
28510;BME280;15723;55.684;37.928;2022-11-20T00:03:45;100179.44;;;-1.27;80.40
28510;BME280;15723;55.684;37.928;2022-11-20T00:06:14;100189.34;;;-1.37;80.38
28510;BME280;15723;55.684;37.928;2022-11-20T00:08:41;100186.75;;;-1.43;80.11
28510;BME280;15723;55.684;37.928;2022-11-20T00:11:14;100184.06;;;-1.40;81.05
28510;BME280;15723;55.684;37.928;2022-11-20T00:13:41;100185.59;;;-1.22;79.76
28510;BME280;15723;55.684;37.928;2022-11-20T00:16:09;100192.09;;;-1.44;79.53
28510;BME280;15723;55.684;37.928;2022-11-20T00:18:36;100187.06;;;-1.73;80.62
28510;BME280;15723;55.684;37.928;2022-11-20T00:21:07;100190.72;;;-1.83;81.00
28510;BME280;15723;55.684;37.928;2022-11-20T00:23:35;100181.69;;;-1.69;81.54
28510;BME280;15723;55.684;37.928;2022-11-20T00:26:06;100186.13;;;-1.68;80.68
28510;BME280;15723;55.684;37.928;2022-11-20T00:28:34;100193.84;;;-1.43;80.52
28510;BME280;15723;55.684;37.928;2022-11-20T00:31:04;100181.56;;;-1.57;80.76
28510;BME280;15723;55.684;37.928;2022-11-20T00:33:31;100180.75;;;-1.63;80.47
28510;BME280;15723;55.684;37.928;2022-11-20T00:36:05;100186.69;;;-1.38;80.54
28510;BME280;15723;55.684;37.928;2022-11-20T00:38:32;100192.00;;;-1.37;80.20
28510;BME280;15723;55.684;37.928;2022-11-20T00:41:00;100191.13;;;-1.39;79.76
28510;BME280;15723;55.684;37.928;2022-11-20T00:43:27;100192.13;;;-1.49;79.88
28510;BME280;15723;55.684;37.928;2022-11-20T00:46:01;100186.88;;;-1.55;79.78
28510;BME280;15723;55.684;37.928;2022-11-20T00:48:28;100186.81;;;-1.50;80.34
28510;BME280;15723;55.684;37.928;2022-11-20T00:50:55;100183.09;;;-1.34;78.87
28510;BME280;15723;55.684;37.928;2022-11-20T00:53:22;100182.22;;;-1.36;79.02
28510;BME280;15723;55.684;37.928;2022-11-20T00:56:00;100183.06;;;-1.31;79.50
28510;BME280;15723;55.684;37.928;2022-11-20T00:58:35;100188.00;;;-1.76;79.58
28510;BME280;15723;55.684;37.928;2022-11-20T01:03:44;100186.94;;;-1.63;79.30
28510;BME280;15723;55.684;37.928;2022-11-20T01:06:26;100186.81;;;-1.52;79.76
28510;BME280;15723;55.684;37.928;2022-11-20T01:08:55;100178.91;;;-1.58;79.97
28510;BME280;15723;55.684;37.928;2022-11-20T01:11:23;100188.56;;;-1.45;79.11
28510;BME280;15723;55.684;37.928;2022-11-20T01:13:51;100184.28;;;-1.63;79.90
28510;BME280;15723;55.684;37.928;2022-11-20T01:16:24;100183.50;;;-1.72;80.76
28510;BME280;15723;55.684;37.928;2022-11-20T01:18:51;100182.00;;;-2.01;81.40
28510;BME280;15723;55.684;37.928;2022-11-20T01:21:21;100188.22;;;-2.00;80.58
28510;BME280;15723;55.684;37.928;2022-11-20T01:23:49;100187.34;;;-2.01;80.92
28510;BME280;15723;55.684;37.928;2022-11-20T01:26:18;100183.59;;;-1.78;80.42
28510;BME280;15723;55.684;37.928;2022-11-20T01:28:44;100181.56;;;-1.58;79.52
28510;BME280;15723;55.684;37.928;2022-11-20T01:31:16;100182.69;;;-1.77;79.96
28510;BME280;15723;55.684;37.928;2022-11-20T01:33:44;100194.47;;;-2.04;80.38
28510;BME280;15723;55.684;37.928;2022-11-20T01:36:11;100191.06;;;-1.33;79.82
28510;BME280;15723;55.684;37.928;2022-11-20T01:38:38;100188.78;;;-1.66;79.60
28510;BME280;15723;55.684;37.928;2022-11-20T01:41:05;100185.16;;;-1.61;79.35
28510;BME280;15723;55.684;37.928;2022-11-20T01:43:33;100188.28;;;-1.23;78.74
28510;BME280;15723;55.684;37.928;2022-11-20T01:51:40;100202.91;;;-1.61;78.96
28510;BME280;15723;55.684;37.928;2022-11-20T01:54:17;100194.03;;;-1.60;78.85
28510;BME280;15723;55.684;37.928;2022-11-20T01:56:46;100210.84;;;-1.57;78.52
28510;BME280;15723;55.684;37.928;2022-11-20T01:59:15;100209.25;;;-1.74;79.03
28510;BME280;15723;55.684;37.928;2022-11-20T02:01:44;100205.59;;;-1.64;79.16
28510;BME280;15723;55.684;37.928;2022-11-20T02:04:10;100216.75;;;-2.19;80.20
28510;BME280;15723;55.684;37.928;2022-11-20T02:07:04;100216.34;;;-1.72;79.35
28510;BME280;15723;55.684;37.928;2022-11-20T02:09:33;100221.81;;;-1.85;79.84
28510;BME280;15723;55.684;37.928;2022-11-20T02:12:00;100224.03;;;-1.43;78.62
28510;BME280;15723;55.684;37.928;2022-11-20T02:14:27;100224.97;;;-1.48;79.15
28510;BME280;15723;55.684;37.928;2022-11-20T02:16:54;100225.31;;;-1.83;79.55
28510;BME280;15723;55.684;37.928;2022-11-20T02:19:24;100226.06;;;-1.69;80.23
28510;BME280;15723;55.684;37.928;2022-11-20T02:22:14;100228.88;;;-1.88;79.93
28510;BME280;15723;55.684;37.928;2022-11-20T02:24:39;100228.59;;;-1.57;80.06
28510;BME280;15723;55.684;37.928;2022-11-20T02:27:11;100230.53;;;-1.73;79.70
28510;BME280;15723;55.684;37.928;2022-11-20T02:29:44;100232.31;;;-1.72;79.37
28510;BME280;15723;55.684;37.928;2022-11-20T02:32:30;100232.13;;;-1.57;79.36
28510;BME280;15723;55.684;37.928;2022-11-20T02:34:57;100236.22;;;-2.14;80.49
28510;BME280;15723;55.684;37.928;2022-11-20T02:37:27;100231.53;;;-1.84;79.17
28510;BME280;15723;55.684;37.928;2022-11-20T02:39:56;100237.81;;;-1.95;79.90
28510;BME280;15723;55.684;37.928;2022-11-20T02:42:23;100236.38;;;-1.36;78.86
28510;BME280;15723;55.684;37.928;2022-11-20T02:44:49;100242.00;;;-1.66;78.48
28510;BME280;15723;55.684;37.928;2022-11-20T02:47:15;100244.69;;;-1.68;79.54
28510;BME280;15723;55.684;37.928;2022-11-20T02:49:41;100253.91;;;-2.08;79.51
28510;BME280;15723;55.684;37.928;2022-11-20T02:52:07;100252.47;;;-1.45;78.83
28510;BME280;15723;55.684;37.928;2022-11-20T02:54:34;100246.59;;;-1.80;78.85
28510;BME280;15723;55.684;37.928;2022-11-20T02:57:00;100252.06;;;-2.02;79.88
28510;BME280;15723;55.684;37.928;2022-11-20T02:59:26;100240.75;;;-1.30;78.24
28510;BME280;15723;55.684;37.928;2022-11-20T03:01:52;100249.31;;;-1.90;78.63
28510;BME280;15723;55.684;37.928;2022-11-20T03:04:18;100248.09;;;-1.53;78.06
28510;BME280;15723;55.684;37.928;2022-11-20T03:06:45;100251.06;;;-1.89;79.14
28510;BME280;15723;55.684;37.928;2022-11-20T03:09:12;100248.28;;;-1.73;79.04
28510;BME280;15723;55.684;37.928;2022-11-20T03:11:38;100254.63;;;-1.90;79.20
28510;BME280;15723;55.684;37.928;2022-11-20T03:14:05;100246.56;;;-1.77;78.27
28510;BME280;15723;55.684;37.928;2022-11-20T03:16:32;100246.44;;;-1.67;78.79
28510;BME280;15723;55.684;37.928;2022-11-20T03:18:58;100247.38;;;-1.72;78.50
28510;BME280;15723;55.684;37.928;2022-11-20T03:21:25;100252.03;;;-1.97;78.60
28510;BME280;15723;55.684;37.928;2022-11-20T03:23:53;100253.19;;;-2.32;80.09
28510;BME280;15723;55.684;37.928;2022-11-20T03:26:22;100262.41;;;-1.67;79.22
28510;BME280;15723;55.684;37.928;2022-11-20T03:28:51;100259.28;;;-2.13;79.63
28510;BME280;15723;55.684;37.928;2022-11-20T03:31:20;100253.53;;;-1.66;78.87
28510;BME280;15723;55.684;37.928;2022-11-20T03:33:48;100272.38;;;-1.90;79.49
28510;BME280;15723;55.684;37.928;2022-11-20T03:36:15;100260.53;;;-1.55;78.09
28510;BME280;15723;55.684;37.928;2022-11-20T03:38:42;100265.28;;;-1.91;79.13
28510;BME280;15723;55.684;37.928;2022-11-20T03:41:19;100266.38;;;-2.16;79.65
28510;BME280;15723;55.684;37.928;2022-11-20T03:44:00;100268.81;;;-1.91;78.97
28510;BME280;15723;55.684;37.928;2022-11-20T03:46:27;100262.50;;;-1.74;78.65
28510;BME280;15723;55.684;37.928;2022-11-20T03:48:54;100269.41;;;-1.57;78.42
28510;BME280;15723;55.684;37.928;2022-11-20T03:51:29;100266.19;;;-1.92;78.60
28510;BME280;15723;55.684;37.928;2022-11-20T03:53:59;100272.22;;;-1.70;77.98
28510;BME280;15723;55.684;37.928;2022-11-20T03:56:28;100273.25;;;-1.85;77.76
28510;BME280;15723;55.684;37.928;2022-11-20T03:58:55;100266.38;;;-1.21;77.09
28510;BME280;15723;55.684;37.928;2022-11-20T04:01:24;100277.31;;;-1.46;77.58
28510;BME280;15723;55.684;37.928;2022-11-20T04:03:55;100278.66;;;-1.99;78.48
28510;BME280;15723;55.684;37.928;2022-11-20T04:06:25;100281.09;;;-1.73;78.43
28510;BME280;15723;55.684;37.928;2022-11-20T04:08:54;100289.91;;;-1.66;78.25
28510;BME280;15723;55.684;37.928;2022-11-20T04:11:26;100279.47;;;-1.91;78.54
28510;BME280;15723;55.684;37.928;2022-11-20T04:13:55;100276.47;;;-1.52;77.65
28510;BME280;15723;55.684;37.928;2022-11-20T04:16:23;100276.09;;;-2.09;78.40
28510;BME280;15723;55.684;37.928;2022-11-20T04:18:58;100291.00;;;-1.90;77.64
28510;BME280;15723;55.684;37.928;2022-11-20T04:21:25;100288.31;;;-1.87;77.83
28510;BME280;15723;55.684;37.928;2022-11-20T04:23:52;100298.06;;;-1.88;77.75
28510;BME280;15723;55.684;37.928;2022-11-20T04:26:23;100295.41;;;-1.86;77.80
28510;BME280;15723;55.684;37.928;2022-11-20T04:28:49;100301.44;;;-1.64;77.60
28510;BME280;15723;55.684;37.928;2022-11-20T04:31:20;100295.81;;;-1.32;76.83
28510;BME280;15723;55.684;37.928;2022-11-20T04:33:46;100296.78;;;-1.41;76.06
28510;BME280;15723;55.684;37.928;2022-11-20T04:36:19;100308.22;;;-1.31;76.05
28510;BME280;15723;55.684;37.928;2022-11-20T04:38:52;100316.59;;;-1.72;76.15
28510;BME280;15723;55.684;37.928;2022-11-20T04:41:21;100313.03;;;-1.71;76.75
28510;BME280;15723;55.684;37.928;2022-11-20T04:43:49;100325.25;;;-1.49;77.19
28510;BME280;15723;55.684;37.928;2022-11-20T04:46:16;100327.25;;;-1.75;77.45
28510;BME280;15723;55.684;37.928;2022-11-20T04:48:43;100334.31;;;-1.68;76.98
28510;BME280;15723;55.684;37.928;2022-11-20T04:51:10;100338.53;;;-1.43;76.66
28510;BME280;15723;55.684;37.928;2022-11-20T04:53:37;100340.81;;;-1.03;75.87
28510;BME280;15723;55.684;37.928;2022-11-20T04:56:06;100329.81;;;-1.62;76.19
28510;BME280;15723;55.684;37.928;2022-11-20T04:58:33;100342.03;;;-1.38;76.35
28510;BME280;15723;55.684;37.928;2022-11-20T05:01:02;100336.06;;;-1.67;77.04
28510;BME280;15723;55.684;37.928;2022-11-20T05:03:29;100336.88;;;-1.58;75.98
28510;BME280;15723;55.684;37.928;2022-11-20T05:05:55;100342.22;;;-1.61;76.96
28510;BME280;15723;55.684;37.928;2022-11-20T05:08:22;100337.13;;;-1.91;76.75
28510;BME280;15723;55.684;37.928;2022-11-20T05:10:48;100345.88;;;-1.72;76.98
28510;BME280;15723;55.684;37.928;2022-11-20T05:13:14;100346.09;;;-2.04;76.68
28510;BME280;15723;55.684;37.928;2022-11-20T05:15:41;100352.41;;;-2.22;77.47
28510;BME280;15723;55.684;37.928;2022-11-20T05:18:07;100354.03;;;-1.97;76.43
28510;BME280;15723;55.684;37.928;2022-11-20T05:20:33;100355.50;;;-1.58;76.28
28510;BME280;15723;55.684;37.928;2022-11-20T05:23:01;100357.47;;;-1.79;76.39
28510;BME280;15723;55.684;37.928;2022-11-20T05:25:27;100358.53;;;-2.08;76.69
28510;BME280;15723;55.684;37.928;2022-11-20T05:27:53;100366.16;;;-1.59;75.20
28510;BME280;15723;55.684;37.928;2022-11-20T05:30:20;100377.94;;;-1.92;75.96
28510;BME280;15723;55.684;37.928;2022-11-20T05:32:46;100375.03;;;-1.57;75.74
28510;BME280;15723;55.684;37.928;2022-11-20T05:35:12;100377.81;;;-1.72;75.34
28510;BME280;15723;55.684;37.928;2022-11-20T05:37:38;100385.00;;;-1.90;75.79
28510;BME280;15723;55.684;37.928;2022-11-20T05:40:05;100381.44;;;-1.81;76.47
28510;BME280;15723;55.684;37.928;2022-11-20T05:42:31;100375.19;;;-1.75;75.63
28510;BME280;15723;55.684;37.928;2022-11-20T05:44:58;100361.75;;;-1.62;76.06
28510;BME280;15723;55.684;37.928;2022-11-20T05:47:31;100376.66;;;-1.38;74.63
28510;BME280;15723;55.684;37.928;2022-11-20T05:49:57;100376.88;;;-1.67;75.48
28510;BME280;15723;55.684;37.928;2022-11-20T05:52:24;100385.00;;;-1.88;75.81
28510;BME280;15723;55.684;37.928;2022-11-20T05:55:06;100398.34;;;-1.94;75.43
28510;BME280;15723;55.684;37.928;2022-11-20T05:57:33;100397.50;;;-2.01;76.31
28510;BME280;15723;55.684;37.928;2022-11-20T05:59:59;100407.97;;;-1.72;75.38
28510;BME280;15723;55.684;37.928;2022-11-20T06:02:26;100412.53;;;-1.94;76.22
28510;BME280;15723;55.684;37.928;2022-11-20T06:04:52;100412.66;;;-2.12;75.44
28510;BME280;15723;55.684;37.928;2022-11-20T06:07:18;100415.06;;;-1.69;75.49
28510;BME280;15723;55.684;37.928;2022-11-20T06:09:44;100416.06;;;-1.92;75.31
28510;BME280;15723;55.684;37.928;2022-11-20T06:12:10;100424.09;;;-1.96;74.94
28510;BME280;15723;55.684;37.928;2022-11-20T06:14:37;100423.66;;;-1.34;74.35
28510;BME280;15723;55.684;37.928;2022-11-20T06:17:03;100418.91;;;-0.98;72.99
28510;BME280;15723;55.684;37.928;2022-11-20T06:19:29;100430.09;;;-1.62;73.71
28510;BME280;15723;55.684;37.928;2022-11-20T06:21:55;100433.16;;;-0.99;72.03
28510;BME280;15723;55.684;37.928;2022-11-20T06:24:21;100428.22;;;-1.48;72.70
28510;BME280;15723;55.684;37.928;2022-11-20T06:26:48;100444.81;;;-1.15;73.66
28510;BME280;15723;55.684;37.928;2022-11-20T06:29:14;100446.81;;;-1.42;73.77
28510;BME280;15723;55.684;37.928;2022-11-20T06:31:41;100457.03;;;-0.88;72.73
28510;BME280;15723;55.684;37.928;2022-11-20T06:34:08;100458.38;;;-1.44;73.22
28510;BME280;15723;55.684;37.928;2022-11-20T06:36:34;100451.84;;;-1.05;72.35
28510;BME280;15723;55.684;37.928;2022-11-20T06:39:01;100460.69;;;-1.00;72.61
28510;BME280;15723;55.684;37.928;2022-11-20T06:41:28;100466.88;;;-0.98;72.84
28510;BME280;15723;55.684;37.928;2022-11-20T06:43:54;100456.88;;;-0.72;72.25
28510;BME280;15723;55.684;37.928;2022-11-20T06:46:20;100454.91;;;-0.56;71.17
28510;BME280;15723;55.684;37.928;2022-11-20T06:48:48;100461.00;;;-1.38;71.90
28510;BME280;15723;55.684;37.928;2022-11-20T06:51:15;100458.22;;;-1.24;72.69
28510;BME280;15723;55.684;37.928;2022-11-20T06:53:42;100453.19;;;-1.67;73.89
28510;BME280;15723;55.684;37.928;2022-11-20T06:56:08;100455.69;;;-1.43;73.57
28510;BME280;15723;55.684;37.928;2022-11-20T06:58:35;100454.16;;;-1.77;74.22
28510;BME280;15723;55.684;37.928;2022-11-20T07:01:05;100452.41;;;-1.80;74.33
28510;BME280;15723;55.684;37.928;2022-11-20T07:03:32;100454.03;;;-1.59;73.12
28510;BME280;15723;55.684;37.928;2022-11-20T07:06:00;100454.88;;;-1.55;73.79
28510;BME280;15723;55.684;37.928;2022-11-20T07:08:27;100456.81;;;-1.79;73.21
28510;BME280;15723;55.684;37.928;2022-11-20T07:10:57;100454.03;;;-1.59;73.62
28510;BME280;15723;55.684;37.928;2022-11-20T07:13:25;100452.25;;;-1.59;73.55
28510;BME280;15723;55.684;37.928;2022-11-20T07:15:51;100447.41;;;-1.03;72.42
28510;BME280;15723;55.684;37.928;2022-11-20T07:18:17;100439.78;;;-1.53;73.32
28510;BME280;15723;55.684;37.928;2022-11-20T07:20:43;100457.44;;;-1.39;72.33
28510;BME280;15723;55.684;37.928;2022-11-20T07:23:09;100462.53;;;-1.08;72.08
28510;BME280;15723;55.684;37.928;2022-11-20T07:25:36;100468.09;;;-0.42;70.47
28510;BME280;15723;55.684;37.928;2022-11-20T07:28:02;100466.94;;;-1.03;71.92
28510;BME280;15723;55.684;37.928;2022-11-20T07:30:30;100471.97;;;-0.71;71.68
28510;BME280;15723;55.684;37.928;2022-11-20T07:32:57;100468.28;;;-0.57;70.05
28510;BME280;15723;55.684;37.928;2022-11-20T07:35:24;100456.97;;;-0.84;70.37
28510;BME280;15723;55.684;37.928;2022-11-20T07:37:50;100454.72;;;-1.33;72.01
28510;BME280;15723;55.684;37.928;2022-11-20T07:40:17;100456.28;;;-1.04;71.38
28510;BME280;15723;55.684;37.928;2022-11-20T07:42:51;100465.22;;;-1.10;70.69
28510;BME280;15723;55.684;37.928;2022-11-20T07:45:18;100469.31;;;-0.75;70.26
28510;BME280;15723;55.684;37.928;2022-11-20T07:47:44;100464.97;;;-0.84;71.50
28510;BME280;15723;55.684;37.928;2022-11-20T07:50:11;100469.44;;;-0.87;71.53
28510;BME280;15723;55.684;37.928;2022-11-20T07:52:37;100467.13;;;-1.27;72.04
28510;BME280;15723;55.684;37.928;2022-11-20T07:55:04;100473.50;;;-1.51;72.53
28510;BME280;15723;55.684;37.928;2022-11-20T07:57:31;100469.03;;;-1.43;72.33
28510;BME280;15723;55.684;37.928;2022-11-20T07:59:57;100472.19;;;-0.95;71.43
28510;BME280;15723;55.684;37.928;2022-11-20T08:02:23;100475.44;;;-0.63;70.53
28510;BME280;15723;55.684;37.928;2022-11-20T08:04:50;100480.56;;;-0.43;69.71
28510;BME280;15723;55.684;37.928;2022-11-20T08:07:16;100482.50;;;-0.58;69.12
28510;BME280;15723;55.684;37.928;2022-11-20T08:09:42;100472.03;;;-0.80;70.90
28510;BME280;15723;55.684;37.928;2022-11-20T08:12:17;100483.00;;;-1.15;70.96
28510;BME280;15723;55.684;37.928;2022-11-20T08:15:04;100500.00;;;-0.30;70.16
28510;BME280;15723;55.684;37.928;2022-11-20T08:17:31;100495.50;;;-0.26;68.85
28510;BME280;15723;55.684;37.928;2022-11-20T08:19:57;100499.94;;;-0.24;69.87
28510;BME280;15723;55.684;37.928;2022-11-20T08:22:23;100489.00;;;-0.04;68.01
28510;BME280;15723;55.684;37.928;2022-11-20T08:24:50;100503.69;;;-0.43;68.94
28510;BME280;15723;55.684;37.928;2022-11-20T08:27:17;100490.97;;;-0.20;68.62
28510;BME280;15723;55.684;37.928;2022-11-20T08:29:43;100497.66;;;0.18;68.19
28510;BME280;15723;55.684;37.928;2022-11-20T08:32:09;100490.19;;;0.44;66.82
28510;BME280;15723;55.684;37.928;2022-11-20T08:34:35;100499.44;;;-0.61;69.33
28510;BME280;15723;55.684;37.928;2022-11-20T08:37:02;100489.94;;;-0.08;69.21
28510;BME280;15723;55.684;37.928;2022-11-20T08:39:29;100486.97;;;0.18;68.04
28510;BME280;15723;55.684;37.928;2022-11-20T08:41:55;100497.06;;;-0.07;69.09
28510;BME280;15723;55.684;37.928;2022-11-20T08:44:21;100500.66;;;-1.00;70.89
28510;BME280;15723;55.684;37.928;2022-11-20T08:46:47;100494.44;;;-0.12;68.53
28510;BME280;15723;55.684;37.928;2022-11-20T08:49:15;100486.66;;;-0.30;69.15
28510;BME280;15723;55.684;37.928;2022-11-20T08:51:41;100491.81;;;0.53;67.16
28510;BME280;15723;55.684;37.928;2022-11-20T08:54:08;100495.91;;;0.14;68.38
28510;BME280;15723;55.684;37.928;2022-11-20T08:56:35;100505.00;;;0.65;66.15
28510;BME280;15723;55.684;37.928;2022-11-20T08:59:01;100511.84;;;0.20;67.33
28510;BME280;15723;55.684;37.928;2022-11-20T09:01:28;100516.53;;;0.03;67.56
28510;BME280;15723;55.684;37.928;2022-11-20T09:03:56;100541.38;;;0.08;67.52
28510;BME280;15723;55.684;37.928;2022-11-20T09:06:26;100542.38;;;0.67;66.18
28510;BME280;15723;55.684;37.928;2022-11-20T09:08:53;100549.38;;;0.08;67.32
28510;BME280;15723;55.684;37.928;2022-11-20T09:11:20;100547.13;;;0.46;67.38
28510;BME280;15723;55.684;37.928;2022-11-20T09:13:46;100551.66;;;-0.37;68.92
28510;BME280;15723;55.684;37.928;2022-11-20T09:16:12;100550.06;;;0.23;68.42
28510;BME280;15723;55.684;37.928;2022-11-20T09:18:38;100555.25;;;0.39;67.16
28510;BME280;15723;55.684;37.928;2022-11-20T09:21:08;100554.38;;;0.35;66.73
28510;BME280;15723;55.684;37.928;2022-11-20T09:23:37;100563.22;;;0.42;66.56
28510;BME280;15723;55.684;37.928;2022-11-20T09:26:14;100555.34;;;0.28;65.83
28510;BME280;15723;55.684;37.928;2022-11-20T09:28:40;100558.31;;;0.76;65.31
28510;BME280;15723;55.684;37.928;2022-11-20T09:31:09;100557.50;;;1.28;64.77
28510;BME280;15723;55.684;37.928;2022-11-20T09:33:36;100564.56;;;1.32;64.82
28510;BME280;15723;55.684;37.928;2022-11-20T09:36:02;100571.75;;;1.30;65.18
28510;BME280;15723;55.684;37.928;2022-11-20T09:38:29;100573.09;;;1.00;66.12
28510;BME280;15723;55.684;37.928;2022-11-20T09:41:03;100581.66;;;0.60;66.07
28510;BME280;15723;55.684;37.928;2022-11-20T09:43:56;100597.44;;;0.09;68.00
28510;BME280;15723;55.684;37.928;2022-11-20T09:47:00;100598.19;;;0.20;67.15
28510;BME280;15723;55.684;37.928;2022-11-20T09:54:39;100595.88;;;-0.13;70.05
28510;BME280;15723;55.684;37.928;2022-11-20T09:57:19;100592.63;;;-0.49;70.76
28510;BME280;15723;55.684;37.928;2022-11-20T09:59:55;100579.44;;;-0.63;70.86
28510;BME280;15723;55.684;37.928;2022-11-20T10:02:34;100586.59;;;-0.69;71.23
28510;BME280;15723;55.684;37.928;2022-11-20T10:05:26;100598.31;;;0.08;69.37
28510;BME280;15723;55.684;37.928;2022-11-20T10:10:46;100582.94;;;-0.57;70.89
28510;BME280;15723;55.684;37.928;2022-11-20T10:30:09;100603.84;;;0.67;67.69
28510;BME280;15723;55.684;37.928;2022-11-20T10:35:42;100609.97;;;0.73;67.31
28510;BME280;15723;55.684;37.928;2022-11-20T10:38:20;100605.91;;;0.46;67.42
28510;BME280;15723;55.684;37.928;2022-11-20T10:41:06;100607.47;;;0.62;67.95
28510;BME280;15723;55.684;37.928;2022-11-20T10:43:58;100613.94;;;0.45;68.36
28510;BME280;15723;55.684;37.928;2022-11-20T10:46:33;100609.34;;;0.54;68.67
28510;BME280;15723;55.684;37.928;2022-11-20T10:49:10;100613.94;;;1.08;66.56
28510;BME280;15723;55.684;37.928;2022-11-20T10:51:48;100623.50;;;1.25;66.33
28510;BME280;15723;55.684;37.928;2022-11-20T10:55:05;100622.56;;;1.30;65.89
28510;BME280;15723;55.684;37.928;2022-11-20T11:00:15;100629.38;;;0.90;66.86
28510;BME280;15723;55.684;37.928;2022-11-20T11:02:51;100625.97;;;0.79;66.35
28510;BME280;15723;55.684;37.928;2022-11-20T11:07:55;100633.69;;;0.28;68.04
28510;BME280;15723;55.684;37.928;2022-11-20T11:10:37;100630.63;;;0.60;68.58
28510;BME280;15723;55.684;37.928;2022-11-20T11:13:07;100636.03;;;0.57;68.56
28510;BME280;15723;55.684;37.928;2022-11-20T11:15:44;100635.34;;;-0.52;70.96
28510;BME280;15723;55.684;37.928;2022-11-20T11:18:11;100638.41;;;0.05;70.52
28510;BME280;15723;55.684;37.928;2022-11-20T11:20:38;100636.25;;;-0.53;71.14
28510;BME280;15723;55.684;37.928;2022-11-20T11:23:04;100639.91;;;-0.68;71.95
28510;BME280;15723;55.684;37.928;2022-11-20T11:25:33;100643.38;;;-0.55;71.57
28510;BME280;15723;55.684;37.928;2022-11-20T11:28:17;100648.09;;;0.14;70.24
28510;BME280;15723;55.684;37.928;2022-11-20T11:30:46;100642.34;;;-0.36;71.74
28510;BME280;15723;55.684;37.928;2022-11-20T11:33:40;100633.53;;;-0.48;72.49
28510;BME280;15723;55.684;37.928;2022-11-20T11:36:21;100640.19;;;-1.07;73.73
28510;BME280;15723;55.684;37.928;2022-11-20T11:38:52;100630.28;;;-0.90;74.01
28510;BME280;15723;55.684;37.928;2022-11-20T11:41:24;100631.13;;;-0.82;74.16
28510;BME280;15723;55.684;37.928;2022-11-20T11:43:56;100638.03;;;-0.53;72.98
28510;BME280;15723;55.684;37.928;2022-11-20T11:46:54;100638.75;;;-0.32;71.38
28510;BME280;15723;55.684;37.928;2022-11-20T11:49:22;100637.56;;;-0.03;71.67
28510;BME280;15723;55.684;37.928;2022-11-20T11:52:14;100636.25;;;-0.53;72.92
28510;BME280;15723;55.684;37.928;2022-11-20T11:57:54;100648.03;;;-0.87;74.08
28510;BME280;15723;55.684;37.928;2022-11-20T12:00:23;100647.94;;;-0.77;74.99
28510;BME280;15723;55.684;37.928;2022-11-20T12:03:09;100661.38;;;-0.90;74.36
28510;BME280;15723;55.684;37.928;2022-11-20T12:05:39;100664.91;;;-0.85;75.00
28510;BME280;15723;55.684;37.928;2022-11-20T12:08:17;100662.16;;;-0.75;74.25
28510;BME280;15723;55.684;37.928;2022-11-20T12:13:53;100660.13;;;-0.35;73.03
28510;BME280;15723;55.684;37.928;2022-11-20T12:16:24;100657.84;;;0.16;72.42
28510;BME280;15723;55.684;37.928;2022-11-20T12:18:52;100657.75;;;-0.80;74.91
28510;BME280;15723;55.684;37.928;2022-11-20T12:21:44;100663.31;;;-1.20;75.80
28510;BME280;15723;55.684;37.928;2022-11-20T12:29:57;100654.28;;;-0.93;75.68
28510;BME280;15723;55.684;37.928;2022-11-20T12:41:07;100647.28;;;-1.06;77.36
28510;BME280;15723;55.684;37.928;2022-11-20T12:47:42;100657.03;;;-1.02;76.27
28510;BME280;15723;55.684;37.928;2022-11-20T12:50:06;100660.22;;;-0.51;75.17
28510;BME280;15723;55.684;37.928;2022-11-20T12:52:48;100658.97;;;-0.08;73.52
28510;BME280;15723;55.684;37.928;2022-11-20T12:57:58;100658.94;;;-0.05;73.22
28510;BME280;15723;55.684;37.928;2022-11-20T13:00:27;100663.00;;;0.33;72.26
28510;BME280;15723;55.684;37.928;2022-11-20T13:03:36;100664.78;;;0.34;72.01
28510;BME280;15723;55.684;37.928;2022-11-20T13:08:43;100687.03;;;0.33;72.02
28510;BME280;15723;55.684;37.928;2022-11-20T13:11:34;100678.41;;;0.10;72.46
28510;BME280;15723;55.684;37.928;2022-11-20T13:17:30;100680.41;;;-0.17;72.62
28510;BME280;15723;55.684;37.928;2022-11-20T13:19:59;100672.91;;;0.25;71.84
28510;BME280;15723;55.684;37.928;2022-11-20T13:22:45;100670.25;;;0.23;71.92
28510;BME280;15723;55.684;37.928;2022-11-20T13:25:35;100676.97;;;-0.29;72.49
28510;BME280;15723;55.684;37.928;2022-11-20T13:30:36;100688.88;;;-0.84;76.10
28510;BME280;15723;55.684;37.928;2022-11-20T13:33:04;100692.97;;;-0.29;74.60
28510;BME280;15723;55.684;37.928;2022-11-20T13:35:37;100700.38;;;-0.73;75.41
28510;BME280;15723;55.684;37.928;2022-11-20T13:38:15;100689.44;;;-0.32;74.05
28510;BME280;15723;55.684;37.928;2022-11-20T13:40:58;100694.75;;;-0.30;73.27
28510;BME280;15723;55.684;37.928;2022-11-20T13:43:37;100712.31;;;-0.05;73.74
28510;BME280;15723;55.684;37.928;2022-11-20T13:46:07;100707.50;;;-0.79;74.90
28510;BME280;15723;55.684;37.928;2022-11-20T13:59:51;100708.97;;;-0.28;73.43
28510;BME280;15723;55.684;37.928;2022-11-20T14:02:23;100710.84;;;-0.42;73.41
28510;BME280;15723;55.684;37.928;2022-11-20T14:04:54;100717.69;;;-0.08;72.94
28510;BME280;15723;55.684;37.928;2022-11-20T14:07:39;100710.69;;;-0.19;73.46
28510;BME280;15723;55.684;37.928;2022-11-20T14:10:24;100715.50;;;-0.72;73.49
28510;BME280;15723;55.684;37.928;2022-11-20T14:12:50;100723.09;;;-0.17;72.88
28510;BME280;15723;55.684;37.928;2022-11-20T14:15:28;100724.56;;;0.19;71.78
28510;BME280;15723;55.684;37.928;2022-11-20T14:17:55;100715.88;;;0.01;72.34
28510;BME280;15723;55.684;37.928;2022-11-20T14:20:25;100730.88;;;0.14;72.07
28510;BME280;15723;55.684;37.928;2022-11-20T14:22:54;100740.81;;;-0.07;72.14
28510;BME280;15723;55.684;37.928;2022-11-20T14:25:22;100735.13;;;0.31;71.82
28510;BME280;15723;55.684;37.928;2022-11-20T14:27:57;100742.84;;;-0.44;72.59